sensor_id;sensor_type;location;lat;lon;timestamp;P1;durP1;ratioP1;P2;durP2;ratioP2
14231;SDS011;7200;52.194;9.900;2022-09-01T03:58:15;1.50;;;1.40;;
14231;SDS011;7200;52.194;9.900;2022-09-01T04:00:55;1.57;;;1.47;;
14231;SDS011;7200;52.194;9.900;2022-09-01T04:03:25;2.07;;;1.50;;
14231;SDS011;7200;52.194;9.900;2022-09-01T04:05:55;1.87;;;1.77;;
14231;SDS011;7200;52.194;9.900;2022-09-01T04:08:21;2.57;;;1.47;;
14231;SDS011;7200;52.194;9.900;2022-09-01T04:10:52;2.03;;;1.50;;
14231;SDS011;7200;52.194;9.900;2022-09-01T04:13:19;2.43;;;1.43;;
14231;SDS011;7200;52.194;9.900;2022-09-01T04:15:47;1.60;;;1.50;;
14231;SDS011;7200;52.194;9.900;2022-09-01T04:18:13;1.90;;;1.70;;
14231;SDS011;7200;52.194;9.900;2022-09-01T04:20:48;1.33;;;1.23;;
14231;SDS011;7200;52.194;9.900;2022-09-01T04:26:02;2.17;;;1.60;;
14231;SDS011;7200;52.194;9.900;2022-09-01T04:28:41;2.57;;;1.50;;
14231;SDS011;7200;52.194;9.900;2022-09-01T04:31:10;2.13;;;1.57;;
14231;SDS011;7200;52.194;9.900;2022-09-01T04:33:39;2.80;;;1.60;;
14231;SDS011;7200;52.194;9.900;2022-09-01T04:36:05;3.30;;;1.60;;
14231;SDS011;7200;52.194;9.900;2022-09-01T04:38:38;1.90;;;1.37;;
14231;SDS011;7200;52.194;9.900;2022-09-01T04:41:06;3.60;;;1.83;;
14231;SDS011;7200;52.194;9.900;2022-09-01T04:43:34;5.10;;;1.43;;
14231;SDS011;7200;52.194;9.900;2022-09-01T04:46:00;2.00;;;1.40;;
14231;SDS011;7200;52.194;9.900;2022-09-01T04:48:27;2.80;;;1.60;;
14231;SDS011;7200;52.194;9.900;2022-09-01T04:50:52;4.77;;;1.70;;
14231;SDS011;7200;52.194;9.900;2022-09-01T04:53:20;1.57;;;1.47;;
14231;SDS011;7200;52.194;9.900;2022-09-01T04:55:45;2.20;;;1.60;;
14231;SDS011;7200;52.194;9.900;2022-09-01T04:58:13;1.80;;;1.70;;
14231;SDS011;7200;52.194;9.900;2022-09-01T05:00:42;2.47;;;1.60;;
14231;SDS011;7200;52.194;9.900;2022-09-01T05:03:09;1.70;;;1.60;;
14231;SDS011;7200;52.194;9.900;2022-09-01T05:05:36;1.77;;;1.67;;
14231;SDS011;7200;52.194;9.900;2022-09-01T05:08:06;2.30;;;2.10;;
14231;SDS011;7200;52.194;9.900;2022-09-01T05:10:37;1.93;;;1.70;;
14231;SDS011;7200;52.194;9.900;2022-09-01T05:13:05;1.70;;;1.60;;
14231;SDS011;7200;52.194;9.900;2022-09-01T05:15:34;2.83;;;2.63;;
14231;SDS011;7200;52.194;9.900;2022-09-01T05:18:01;2.80;;;1.40;;
14231;SDS011;7200;52.194;9.900;2022-09-01T05:20:35;1.80;;;1.47;;
14231;SDS011;7200;52.194;9.900;2022-09-01T05:23:02;4.13;;;2.30;;
14231;SDS011;7200;52.194;9.900;2022-09-01T05:25:29;2.03;;;1.83;;
14231;SDS011;7200;52.194;9.900;2022-09-01T05:27:54;2.20;;;1.97;;
14231;SDS011;7200;52.194;9.900;2022-09-01T05:30:21;1.77;;;1.67;;
14231;SDS011;7200;52.194;9.900;2022-09-01T05:32:48;1.80;;;1.70;;
14231;SDS011;7200;52.194;9.900;2022-09-01T05:35:14;3.53;;;2.13;;
14231;SDS011;7200;52.194;9.900;2022-09-01T05:37:40;3.20;;;2.07;;
14231;SDS011;7200;52.194;9.900;2022-09-01T05:40:07;5.47;;;2.27;;
14231;SDS011;7200;52.194;9.900;2022-09-01T05:42:33;4.57;;;1.90;;
14231;SDS011;7200;52.194;9.900;2022-09-01T05:45:01;3.03;;;1.90;;
14231;SDS011;7200;52.194;9.900;2022-09-01T05:47:26;2.87;;;2.07;;
14231;SDS011;7200;52.194;9.900;2022-09-01T05:49:52;2.90;;;2.10;;
14231;SDS011;7200;52.194;9.900;2022-09-01T05:52:20;4.23;;;2.93;;
14231;SDS011;7200;52.194;9.900;2022-09-01T05:54:48;2.17;;;1.97;;
14231;SDS011;7200;52.194;9.900;2022-09-01T05:57:15;2.50;;;2.30;;
14231;SDS011;7200;52.194;9.900;2022-09-01T05:59:41;3.53;;;2.13;;
14231;SDS011;7200;52.194;9.900;2022-09-01T06:02:07;2.40;;;2.10;;
14231;SDS011;7200;52.194;9.900;2022-09-01T06:04:33;2.00;;;1.90;;
14231;SDS011;7200;52.194;9.900;2022-09-01T06:06:59;2.93;;;2.10;;
14231;SDS011;7200;52.194;9.900;2022-09-01T06:09:25;2.60;;;1.93;;
14231;SDS011;7200;52.194;9.900;2022-09-01T06:11:51;1.93;;;1.70;;
14231;SDS011;7200;52.194;9.900;2022-09-01T06:14:17;2.00;;;1.90;;
14231;SDS011;7200;52.194;9.900;2022-09-01T06:16:43;2.30;;;2.10;;
14231;SDS011;7200;52.194;9.900;2022-09-01T06:19:10;2.90;;;1.70;;
14231;SDS011;7200;52.194;9.900;2022-09-01T06:21:37;2.27;;;2.07;;
14231;SDS011;7200;52.194;9.900;2022-09-01T06:24:03;2.93;;;2.10;;
14231;SDS011;7200;52.194;9.900;2022-09-01T06:26:31;1.97;;;1.80;;
14231;SDS011;7200;52.194;9.900;2022-09-01T06:29:00;1.77;;;1.67;;
14231;SDS011;7200;52.194;9.900;2022-09-01T06:31:29;2.20;;;2.00;;
14231;SDS011;7200;52.194;9.900;2022-09-01T06:34:02;3.57;;;1.90;;
14231;SDS011;7200;52.194;9.900;2022-09-01T06:36:29;2.10;;;1.90;;
14231;SDS011;7200;52.194;9.900;2022-09-01T06:38:58;2.10;;;1.60;;
14231;SDS011;7200;52.194;9.900;2022-09-01T06:41:25;3.67;;;1.60;;
14231;SDS011;7200;52.194;9.900;2022-09-01T06:43:52;1.70;;;1.60;;
14231;SDS011;7200;52.194;9.900;2022-09-01T06:46:19;2.80;;;1.73;;
14231;SDS011;7200;52.194;9.900;2022-09-01T06:48:47;2.40;;;1.60;;
14231;SDS011;7200;52.194;9.900;2022-09-01T06:51:13;2.40;;;1.67;;
14231;SDS011;7200;52.194;9.900;2022-09-01T06:53:41;1.97;;;1.50;;
14231;SDS011;7200;52.194;9.900;2022-09-01T06:56:08;2.20;;;1.77;;
14231;SDS011;7200;52.194;9.900;2022-09-01T06:58:40;1.73;;;1.63;;
14231;SDS011;7200;52.194;9.900;2022-09-01T07:01:12;2.60;;;1.67;;
14231;SDS011;7200;52.194;9.900;2022-09-01T07:03:39;1.90;;;1.77;;
14231;SDS011;7200;52.194;9.900;2022-09-01T07:06:08;3.10;;;1.83;;
14231;SDS011;7200;52.194;9.900;2022-09-01T07:08:34;1.70;;;1.60;;
14231;SDS011;7200;52.194;9.900;2022-09-01T07:11:03;3.20;;;1.50;;
14231;SDS011;7200;52.194;9.900;2022-09-01T07:13:34;2.07;;;1.70;;
14231;SDS011;7200;52.194;9.900;2022-09-01T07:16:01;2.40;;;1.93;;
14231;SDS011;7200;52.194;9.900;2022-09-01T07:18:30;2.63;;;2.40;;
14231;SDS011;7200;52.194;9.900;2022-09-01T07:20:57;1.53;;;1.43;;
14231;SDS011;7200;52.194;9.900;2022-09-01T07:23:23;4.00;;;2.00;;
14231;SDS011;7200;52.194;9.900;2022-09-01T07:25:49;2.03;;;1.77;;
14231;SDS011;7200;52.194;9.900;2022-09-01T07:28:19;2.23;;;1.40;;
14231;SDS011;7200;52.194;9.900;2022-09-01T07:30:49;1.87;;;1.60;;
14231;SDS011;7200;52.194;9.900;2022-09-01T07:33:17;1.33;;;1.20;;
14231;SDS011;7200;52.194;9.900;2022-09-01T07:35:48;2.17;;;1.50;;
14231;SDS011;7200;52.194;9.900;2022-09-01T07:38:16;1.87;;;1.30;;
14231;SDS011;7200;52.194;9.900;2022-09-01T07:40:43;1.73;;;1.20;;
14231;SDS011;7200;52.194;9.900;2022-09-01T07:43:14;1.33;;;1.23;;
14231;SDS011;7200;52.194;9.900;2022-09-01T07:45:44;1.97;;;1.30;;
14231;SDS011;7200;52.194;9.900;2022-09-01T07:48:13;1.87;;;1.20;;
14231;SDS011;7200;52.194;9.900;2022-09-01T07:50:45;1.67;;;1.20;;
14231;SDS011;7200;52.194;9.900;2022-09-01T07:53:13;3.60;;;1.30;;
14231;SDS011;7200;52.194;9.900;2022-09-01T07:55:42;1.90;;;1.00;;
14231;SDS011;7200;52.194;9.900;2022-09-01T07:58:09;2.43;;;1.37;;
14231;SDS011;7200;52.194;9.900;2022-09-01T08:00:34;1.67;;;1.37;;
14231;SDS011;7200;52.194;9.900;2022-09-01T08:03:01;1.80;;;1.33;;
14231;SDS011;7200;52.194;9.900;2022-09-01T08:05:26;1.10;;;1.10;;
14231;SDS011;7200;52.194;9.900;2022-09-01T08:07:53;1.53;;;0.90;;
14231;SDS011;7200;52.194;9.900;2022-09-01T08:10:18;1.10;;;0.90;;
14231;SDS011;7200;52.194;9.900;2022-09-01T08:12:44;1.53;;;0.87;;
14231;SDS011;7200;52.194;9.900;2022-09-01T08:15:09;1.23;;;0.90;;
14231;SDS011;7200;52.194;9.900;2022-09-01T08:17:40;1.63;;;0.73;;
14231;SDS011;7200;52.194;9.900;2022-09-01T08:20:06;1.43;;;0.90;;
14231;SDS011;7200;52.194;9.900;2022-09-01T08:22:34;1.20;;;0.90;;
14231;SDS011;7200;52.194;9.900;2022-09-01T08:25:01;4.10;;;0.80;;
14231;SDS011;7200;52.194;9.900;2022-09-01T08:27:27;0.90;;;0.77;;
14231;SDS011;7200;52.194;9.900;2022-09-01T08:29:52;1.93;;;1.00;;
14231;SDS011;7200;52.194;9.900;2022-09-01T08:32:18;1.30;;;1.20;;
14231;SDS011;7200;52.194;9.900;2022-09-01T08:34:44;2.63;;;0.80;;
14231;SDS011;7200;52.194;9.900;2022-09-01T08:37:10;1.10;;;0.90;;
14231;SDS011;7200;52.194;9.900;2022-09-01T08:39:35;1.50;;;0.70;;
14231;SDS011;7200;52.194;9.900;2022-09-01T08:42:04;0.67;;;0.67;;
14231;SDS011;7200;52.194;9.900;2022-09-01T08:44:49;1.80;;;0.90;;
14231;SDS011;7200;52.194;9.900;2022-09-01T08:47:23;0.80;;;0.60;;
14231;SDS011;7200;52.194;9.900;2022-09-01T08:49:48;0.93;;;0.70;;
14231;SDS011;7200;52.194;9.900;2022-09-01T08:52:29;0.77;;;0.53;;
14231;SDS011;7200;52.194;9.900;2022-09-01T08:55:02;0.90;;;0.70;;
14231;SDS011;7200;52.194;9.900;2022-09-01T08:57:37;1.17;;;0.80;;
14231;SDS011;7200;52.194;9.900;2022-09-01T09:00:05;1.53;;;0.60;;
14231;SDS011;7200;52.194;9.900;2022-09-01T09:16:58;2.93;;;0.87;;
14231;SDS011;7200;52.194;9.900;2022-09-01T09:19:25;0.70;;;0.70;;
14231;SDS011;7200;52.194;9.900;2022-09-01T09:21:54;2.13;;;1.03;;
14231;SDS011;7200;52.194;9.900;2022-09-01T09:27:14;0.80;;;0.70;;
14231;SDS011;7200;52.194;9.900;2022-09-01T09:29:42;2.43;;;0.93;;
14231;SDS011;7200;52.194;9.900;2022-09-01T09:32:08;0.90;;;0.70;;
14231;SDS011;7200;52.194;9.900;2022-09-01T09:34:38;2.40;;;0.90;;
14231;SDS011;7200;52.194;9.900;2022-09-01T09:37:16;1.17;;;0.77;;
14231;SDS011;7200;52.194;9.900;2022-09-01T09:42:32;1.43;;;0.80;;
14231;SDS011;7200;52.194;9.900;2022-09-01T09:44:58;2.03;;;0.87;;
14231;SDS011;7200;52.194;9.900;2022-09-01T09:47:34;0.70;;;0.60;;
14231;SDS011;7200;52.194;9.900;2022-09-01T09:50:12;1.03;;;0.50;;
14231;SDS011;7200;52.194;9.900;2022-09-01T09:52:43;1.23;;;0.60;;
14231;SDS011;7200;52.194;9.900;2022-09-01T09:55:29;0.90;;;0.73;;
14231;SDS011;7200;52.194;9.900;2022-09-01T09:57:58;2.63;;;0.73;;
14231;SDS011;7200;52.194;9.900;2022-09-01T10:00:33;1.27;;;0.50;;
14231;SDS011;7200;52.194;9.900;2022-09-01T10:03:01;1.57;;;0.50;;
14231;SDS011;7200;52.194;9.900;2022-09-01T10:08:00;0.60;;;0.50;;
14231;SDS011;7200;52.194;9.900;2022-09-01T10:13:19;1.13;;;0.40;;
14231;SDS011;7200;52.194;9.900;2022-09-01T10:15:51;1.17;;;0.40;;
14231;SDS011;7200;52.194;9.900;2022-09-01T10:18:19;0.30;;;0.30;;
14231;SDS011;7200;52.194;9.900;2022-09-01T10:23:32;1.40;;;0.50;;
14231;SDS011;7200;52.194;9.900;2022-09-01T10:26:13;1.17;;;0.53;;
14231;SDS011;7200;52.194;9.900;2022-09-01T10:31:23;1.20;;;0.30;;
14231;SDS011;7200;52.194;9.900;2022-09-01T10:33:49;0.60;;;0.30;;
14231;SDS011;7200;52.194;9.900;2022-09-01T10:36:15;1.17;;;0.30;;
14231;SDS011;7200;52.194;9.900;2022-09-01T10:38:42;0.50;;;0.50;;
14231;SDS011;7200;52.194;9.900;2022-09-01T10:41:07;1.03;;;0.60;;
14231;SDS011;7200;52.194;9.900;2022-09-01T10:43:40;0.83;;;0.20;;
14231;SDS011;7200;52.194;9.900;2022-09-01T10:48:43;1.00;;;0.40;;
14231;SDS011;7200;52.194;9.900;2022-09-01T10:53:38;1.17;;;0.30;;
14231;SDS011;7200;52.194;9.900;2022-09-01T11:06:54;0.77;;;0.37;;
14231;SDS011;7200;52.194;9.900;2022-09-01T11:09:36;1.03;;;0.40;;
14231;SDS011;7200;52.194;9.900;2022-09-01T11:12:24;0.27;;;0.27;;
14231;SDS011;7200;52.194;9.900;2022-09-01T11:15:05;0.30;;;0.30;;
14231;SDS011;7200;52.194;9.900;2022-09-01T11:18:00;0.43;;;0.40;;
14231;SDS011;7200;52.194;9.900;2022-09-01T11:20:30;0.37;;;0.30;;
14231;SDS011;7200;52.194;9.900;2022-09-01T11:30:43;0.87;;;0.30;;
14231;SDS011;7200;52.194;9.900;2022-09-01T11:36:15;1.03;;;0.30;;
14231;SDS011;7200;52.194;9.900;2022-09-01T11:42:05;0.90;;;0.40;;
14231;SDS011;7200;52.194;9.900;2022-09-01T11:47:19;0.30;;;0.30;;
14231;SDS011;7200;52.194;9.900;2022-09-01T11:49:58;0.40;;;0.40;;
14231;SDS011;7200;52.194;9.900;2022-09-01T11:52:27;1.03;;;0.30;;
14231;SDS011;7200;52.194;9.900;2022-09-01T11:54:55;0.60;;;0.40;;
14231;SDS011;7200;52.194;9.900;2022-09-01T11:57:26;0.40;;;0.30;;
14231;SDS011;7200;52.194;9.900;2022-09-01T11:59:57;0.40;;;0.30;;
14231;SDS011;7200;52.194;9.900;2022-09-01T12:02:28;1.60;;;0.50;;
14231;SDS011;7200;52.194;9.900;2022-09-01T12:04:57;0.23;;;0.23;;
14231;SDS011;7200;52.194;9.900;2022-09-01T12:07:25;1.00;;;0.40;;
14231;SDS011;7200;52.194;9.900;2022-09-01T12:09:59;0.40;;;0.30;;
14231;SDS011;7200;52.194;9.900;2022-09-01T12:12:31;0.83;;;0.30;;
14231;SDS011;7200;52.194;9.900;2022-09-01T12:17:31;0.43;;;0.40;;
14231;SDS011;7200;52.194;9.900;2022-09-01T12:20:17;1.23;;;0.30;;
14231;SDS011;7200;52.194;9.900;2022-09-01T12:22:45;0.63;;;0.30;;
14231;SDS011;7200;52.194;9.900;2022-09-01T12:25:21;0.30;;;0.30;;
14231;SDS011;7200;52.194;9.900;2022-09-01T12:27:48;0.60;;;0.40;;
14231;SDS011;7200;52.194;9.900;2022-09-01T12:30:14;0.83;;;0.30;;
14231;SDS011;7200;52.194;9.900;2022-09-01T12:32:40;0.87;;;0.40;;
14231;SDS011;7200;52.194;9.900;2022-09-01T12:35:13;0.83;;;0.43;;
14231;SDS011;7200;52.194;9.900;2022-09-01T12:37:43;1.03;;;0.30;;
14231;SDS011;7200;52.194;9.900;2022-09-01T12:40:20;1.13;;;0.50;;
14231;SDS011;7200;52.194;9.900;2022-09-01T12:42:48;0.70;;;0.20;;
14231;SDS011;7200;52.194;9.900;2022-09-01T12:45:15;0.50;;;0.50;;
14231;SDS011;7200;52.194;9.900;2022-09-01T12:48:04;1.13;;;0.40;;
14231;SDS011;7200;52.194;9.900;2022-09-01T12:52:58;1.37;;;0.33;;
14231;SDS011;7200;52.194;9.900;2022-09-01T12:55:35;2.47;;;0.40;;
14231;SDS011;7200;52.194;9.900;2022-09-01T12:58:02;0.40;;;0.30;;
14231;SDS011;7200;52.194;9.900;2022-09-01T13:00:30;0.50;;;0.40;;
14231;SDS011;7200;52.194;9.900;2022-09-01T13:08:00;0.60;;;0.30;;
14231;SDS011;7200;52.194;9.900;2022-09-01T13:10:40;0.53;;;0.50;;
14231;SDS011;7200;52.194;9.900;2022-09-01T13:13:08;3.50;;;0.40;;
14231;SDS011;7200;52.194;9.900;2022-09-01T13:15:35;0.80;;;0.40;;
14231;SDS011;7200;52.194;9.900;2022-09-01T13:18:02;1.23;;;0.40;;
14231;SDS011;7200;52.194;9.900;2022-09-01T13:20:28;0.40;;;0.40;;
14231;SDS011;7200;52.194;9.900;2022-09-01T13:22:53;0.27;;;0.27;;
14231;SDS011;7200;52.194;9.900;2022-09-01T13:25:19;0.47;;;0.37;;
14231;SDS011;7200;52.194;9.900;2022-09-01T13:27:46;0.90;;;0.30;;
14231;SDS011;7200;52.194;9.900;2022-09-01T13:30:16;1.40;;;0.40;;
14231;SDS011;7200;52.194;9.900;2022-09-01T13:32:43;0.83;;;0.53;;
14231;SDS011;7200;52.194;9.900;2022-09-01T13:35:10;0.60;;;0.40;;
14231;SDS011;7200;52.194;9.900;2022-09-01T13:37:37;1.70;;;0.40;;
14231;SDS011;7200;52.194;9.900;2022-09-01T13:40:04;0.97;;;0.40;;
14231;SDS011;7200;52.194;9.900;2022-09-01T13:42:32;0.30;;;0.30;;
14231;SDS011;7200;52.194;9.900;2022-09-01T13:44:58;0.60;;;0.30;;
14231;SDS011;7200;52.194;9.900;2022-09-01T13:47:23;0.30;;;0.30;;
14231;SDS011;7200;52.194;9.900;2022-09-01T13:49:48;0.40;;;0.40;;
14231;SDS011;7200;52.194;9.900;2022-09-01T13:52:14;1.20;;;0.40;;
14231;SDS011;7200;52.194;9.900;2022-09-01T13:54:39;0.87;;;0.40;;
14231;SDS011;7200;52.194;9.900;2022-09-01T13:57:05;0.53;;;0.30;;
14231;SDS011;7200;52.194;9.900;2022-09-01T13:59:30;0.30;;;0.30;;
14231;SDS011;7200;52.194;9.900;2022-09-01T14:01:56;1.17;;;0.57;;
14231;SDS011;7200;52.194;9.900;2022-09-01T14:04:22;2.33;;;0.40;;
14231;SDS011;7200;52.194;9.900;2022-09-01T14:06:47;0.60;;;0.60;;
14231;SDS011;7200;52.194;9.900;2022-09-01T14:09:13;5.13;;;0.93;;
14231;SDS011;7200;52.194;9.900;2022-09-01T14:11:39;6.83;;;1.60;;
14231;SDS011;7200;52.194;9.900;2022-09-01T14:14:05;1.07;;;0.33;;
14231;SDS011;7200;52.194;9.900;2022-09-01T14:16:31;2.57;;;0.60;;
14231;SDS011;7200;52.194;9.900;2022-09-01T14:18:57;0.67;;;0.30;;
14231;SDS011;7200;52.194;9.900;2022-09-01T14:21:24;1.03;;;0.50;;
14231;SDS011;7200;52.194;9.900;2022-09-01T14:23:50;0.50;;;0.50;;
14231;SDS011;7200;52.194;9.900;2022-09-01T14:26:16;0.70;;;0.40;;
14231;SDS011;7200;52.194;9.900;2022-09-01T14:28:42;0.50;;;0.30;;
14231;SDS011;7200;52.194;9.900;2022-09-01T14:31:13;0.73;;;0.30;;
14231;SDS011;7200;52.194;9.900;2022-09-01T14:33:41;0.53;;;0.40;;
14231;SDS011;7200;52.194;9.900;2022-09-01T14:36:07;1.43;;;0.30;;
14231;SDS011;7200;52.194;9.900;2022-09-01T14:38:40;0.67;;;0.40;;
14231;SDS011;7200;52.194;9.900;2022-09-01T14:41:05;0.83;;;0.37;;
14231;SDS011;7200;52.194;9.900;2022-09-01T14:43:31;0.37;;;0.30;;
14231;SDS011;7200;52.194;9.900;2022-09-01T14:46:03;0.67;;;0.40;;
14231;SDS011;7200;52.194;9.900;2022-09-01T14:48:31;2.17;;;0.43;;
14231;SDS011;7200;52.194;9.900;2022-09-01T14:50:58;0.53;;;0.30;;
14231;SDS011;7200;52.194;9.900;2022-09-01T14:53:24;0.57;;;0.40;;
14231;SDS011;7200;52.194;9.900;2022-09-01T14:55:51;0.30;;;0.20;;
14231;SDS011;7200;52.194;9.900;2022-09-01T14:58:16;1.00;;;0.50;;
14231;SDS011;7200;52.194;9.900;2022-09-01T15:00:41;0.30;;;0.30;;
14231;SDS011;7200;52.194;9.900;2022-09-01T15:03:09;0.40;;;0.40;;
14231;SDS011;7200;52.194;9.900;2022-09-01T15:05:35;0.67;;;0.40;;
14231;SDS011;7200;52.194;9.900;2022-09-01T15:08:01;1.20;;;0.40;;
14231;SDS011;7200;52.194;9.900;2022-09-01T15:10:26;0.50;;;0.50;;
14231;SDS011;7200;52.194;9.900;2022-09-01T15:12:53;3.03;;;0.50;;
14231;SDS011;7200;52.194;9.900;2022-09-01T15:15:20;1.00;;;0.40;;
14231;SDS011;7200;52.194;9.900;2022-09-01T15:17:46;0.50;;;0.50;;
14231;SDS011;7200;52.194;9.900;2022-09-01T15:20:11;1.43;;;0.50;;
14231;SDS011;7200;52.194;9.900;2022-09-01T15:22:55;0.97;;;0.40;;
14231;SDS011;7200;52.194;9.900;2022-09-01T15:25:21;1.40;;;0.50;;
14231;SDS011;7200;52.194;9.900;2022-09-01T15:27:46;1.27;;;0.30;;
14231;SDS011;7200;52.194;9.900;2022-09-01T15:30:12;0.20;;;0.20;;
14231;SDS011;7200;52.194;9.900;2022-09-01T15:32:42;0.70;;;0.28;;
14231;SDS011;7200;52.194;9.900;2022-09-01T15:35:09;0.90;;;0.30;;
14231;SDS011;7200;52.194;9.900;2022-09-01T15:37:35;1.02;;;0.30;;
14231;SDS011;7200;52.194;9.900;2022-09-01T15:40:01;0.55;;;0.30;;
14231;SDS011;7200;52.194;9.900;2022-09-01T15:42:26;0.30;;;0.30;;
14231;SDS011;7200;52.194;9.900;2022-09-01T15:44:52;0.65;;;0.30;;
14231;SDS011;7200;52.194;9.900;2022-09-01T15:47:17;1.02;;;0.45;;
14231;SDS011;7200;52.194;9.900;2022-09-01T15:49:42;1.27;;;0.60;;
14231;SDS011;7200;52.194;9.900;2022-09-01T15:52:08;0.82;;;0.30;;
14231;SDS011;7200;52.194;9.900;2022-09-01T15:54:36;0.40;;;0.40;;
14231;SDS011;7200;52.194;9.900;2022-09-01T15:57:02;0.38;;;0.32;;
14231;SDS011;7200;52.194;9.900;2022-09-01T15:59:28;0.25;;;0.25;;
14231;SDS011;7200;52.194;9.900;2022-09-01T16:01:53;1.23;;;0.38;;
14231;SDS011;7200;52.194;9.900;2022-09-01T16:04:18;0.38;;;0.25;;
14231;SDS011;7200;52.194;9.900;2022-09-01T16:06:44;0.43;;;0.38;;
14231;SDS011;7200;52.194;9.900;2022-09-01T16:09:10;0.80;;;0.60;;
14231;SDS011;7200;52.194;9.900;2022-09-01T16:11:39;0.40;;;0.30;;
14231;SDS011;7200;52.194;9.900;2022-09-01T16:14:05;0.40;;;0.37;;
14231;SDS011;7200;52.194;9.900;2022-09-01T16:24:29;0.63;;;0.45;;
14231;SDS011;7200;52.194;9.900;2022-09-01T16:27:03;0.95;;;0.45;;
14231;SDS011;7200;52.194;9.900;2022-09-01T16:29:33;1.02;;;0.40;;
14231;SDS011;7200;52.194;9.900;2022-09-01T16:32:06;0.70;;;0.47;;
14231;SDS011;7200;52.194;9.900;2022-09-01T16:34:31;1.55;;;0.50;;
14231;SDS011;7200;52.194;9.900;2022-09-01T16:37:03;0.45;;;0.40;;
14231;SDS011;7200;52.194;9.900;2022-09-01T16:39:40;0.60;;;0.40;;
14231;SDS011;7200;52.194;9.900;2022-09-01T16:45:03;1.27;;;0.40;;
14231;SDS011;7200;52.194;9.900;2022-09-01T16:55:39;0.40;;;0.40;;
14231;SDS011;7200;52.194;9.900;2022-09-01T17:01:26;0.40;;;0.40;;
14231;SDS011;7200;52.194;9.900;2022-09-01T17:07:14;0.90;;;0.30;;
14231;SDS011;7200;52.194;9.900;2022-09-01T17:09:44;1.00;;;0.60;;
14231;SDS011;7200;52.194;9.900;2022-09-01T17:15:09;2.63;;;0.33;;
14231;SDS011;7200;52.194;9.900;2022-09-01T17:17:49;1.23;;;0.50;;
14231;SDS011;7200;52.194;9.900;2022-09-01T17:20:23;1.83;;;0.70;;
14231;SDS011;7200;52.194;9.900;2022-09-01T17:22:52;1.67;;;0.60;;
14231;SDS011;7200;52.194;9.900;2022-09-01T17:25:32;1.63;;;0.50;;
14231;SDS011;7200;52.194;9.900;2022-09-01T17:30:31;0.40;;;0.40;;
14231;SDS011;7200;52.194;9.900;2022-09-01T17:35:44;1.40;;;0.50;;
14231;SDS011;7200;52.194;9.900;2022-09-01T17:43:38;1.20;;;0.30;;
14231;SDS011;7200;52.194;9.900;2022-09-01T17:46:29;0.30;;;0.30;;
14231;SDS011;7200;52.194;9.900;2022-09-01T17:54:29;0.87;;;0.30;;
14231;SDS011;7200;52.194;9.900;2022-09-01T17:57:06;0.37;;;0.30;;
14231;SDS011;7200;52.194;9.900;2022-09-01T17:59:54;0.33;;;0.30;;
14231;SDS011;7200;52.194;9.900;2022-09-01T18:02:39;4.07;;;0.33;;
14231;SDS011;7200;52.194;9.900;2022-09-01T18:05:20;1.43;;;0.30;;
14231;SDS011;7200;52.194;9.900;2022-09-01T18:08:03;1.50;;;1.10;;
14231;SDS011;7200;52.194;9.900;2022-09-01T18:11:05;1.47;;;0.40;;
14231;SDS011;7200;52.194;9.900;2022-09-01T18:16:24;1.37;;;0.40;;
14231;SDS011;7200;52.194;9.900;2022-09-01T18:18:56;0.43;;;0.30;;
14231;SDS011;7200;52.194;9.900;2022-09-01T18:21:36;1.30;;;0.40;;
14231;SDS011;7200;52.194;9.900;2022-09-01T18:24:19;1.70;;;0.43;;
14231;SDS011;7200;52.194;9.900;2022-09-01T18:26:50;0.83;;;0.40;;
14231;SDS011;7200;52.194;9.900;2022-09-01T18:29:17;1.63;;;0.60;;
14231;SDS011;7200;52.194;9.900;2022-09-01T18:31:47;1.43;;;0.30;;
14231;SDS011;7200;52.194;9.900;2022-09-01T18:37:17;1.13;;;0.40;;
14231;SDS011;7200;52.194;9.900;2022-09-01T18:42:32;0.33;;;0.33;;
14231;SDS011;7200;52.194;9.900;2022-09-01T18:45:22;0.30;;;0.30;;
14231;SDS011;7200;52.194;9.900;2022-09-01T18:50:38;0.50;;;0.30;;
14231;SDS011;7200;52.194;9.900;2022-09-01T18:53:17;0.63;;;0.37;;
14231;SDS011;7200;52.194;9.900;2022-09-01T18:55:54;0.43;;;0.40;;
14231;SDS011;7200;52.194;9.900;2022-09-01T18:58:33;2.40;;;0.83;;
14231;SDS011;7200;52.194;9.900;2022-09-01T19:01:33;3.50;;;0.50;;
14231;SDS011;7200;52.194;9.900;2022-09-01T19:04:05;0.70;;;0.40;;
14231;SDS011;7200;52.194;9.900;2022-09-01T19:09:17;0.40;;;0.40;;
14231;SDS011;7200;52.194;9.900;2022-09-01T19:20:08;1.83;;;0.40;;
14231;SDS011;7200;52.194;9.900;2022-09-01T19:25:20;0.73;;;0.40;;
14231;SDS011;7200;52.194;9.900;2022-09-01T19:31:35;1.47;;;0.40;;
14231;SDS011;7200;52.194;9.900;2022-09-01T19:33:41;2.57;;;0.50;;
14231;SDS011;7200;52.194;9.900;2022-09-01T19:36:11;1.10;;;0.33;;
14231;SDS011;7200;52.194;9.900;2022-09-01T19:38:42;1.50;;;0.40;;
14231;SDS011;7200;52.194;9.900;2022-09-01T19:41:14;0.77;;;0.40;;
14231;SDS011;7200;52.194;9.900;2022-09-01T19:43:47;0.50;;;0.40;;
14231;SDS011;7200;52.194;9.900;2022-09-01T19:46:28;1.20;;;0.40;;
14231;SDS011;7200;52.194;9.900;2022-09-01T19:51:50;0.90;;;0.30;;
14231;SDS011;7200;52.194;9.900;2022-09-01T19:54:32;1.87;;;0.60;;
14231;SDS011;7200;52.194;9.900;2022-09-01T19:57:16;0.70;;;0.40;;
14231;SDS011;7200;52.194;9.900;2022-09-01T19:59:55;2.30;;;0.50;;
14231;SDS011;7200;52.194;9.900;2022-09-01T20:02:33;2.10;;;1.10;;
14231;SDS011;7200;52.194;9.900;2022-09-01T20:05:07;1.23;;;0.80;;
14231;SDS011;7200;52.194;9.900;2022-09-01T20:07:43;3.00;;;1.50;;
14231;SDS011;7200;52.194;9.900;2022-09-01T20:13:19;2.83;;;2.63;;
14231;SDS011;7200;52.194;9.900;2022-09-01T20:15:50;1.10;;;1.00;;
14231;SDS011;7200;52.194;9.900;2022-09-01T20:18:27;1.47;;;1.17;;
14231;SDS011;7200;52.194;9.900;2022-09-01T20:21:01;0.90;;;0.80;;
14231;SDS011;7200;52.194;9.900;2022-09-01T20:23:41;1.53;;;1.07;;
14231;SDS011;7200;52.194;9.900;2022-09-01T20:26:29;0.47;;;0.40;;
14231;SDS011;7200;52.194;9.900;2022-09-01T20:31:45;0.70;;;0.40;;
